Time;durP1;ratioP1;P1;durP2;ratioP2;P2;SDS_P1;SDS_P2;PMS_P1;PMS_P2;Temp;Humidity;BMP_temperature;BMP_pressure;BME280_temperature;BME280_humidity;BME280_pressure;Samples;Min_cycle;Max_cycle;Signal;HPM_P1;HPM_P2
2022/01/11 00:01:29;;;;;;;36.90;19.15;;;;;;;8.11;53.44;96248.13;5031008;28;20047;-62
2022/01/11 00:03:55;;;;;;;27.77;17.23;;;;;;;7.98;52.71;96209.66;5029175;28;20471;-62
2022/01/11 00:08:54;;;;;;;28.02;18.30;;;;;;;8.83;51.48;96266.56;5030942;28;20032;-62
2022/01/11 00:11:19;;;;;;;25.23;17.33;;;;;;;8.67;51.52;96257.03;5029043;28;20029;-63
2022/01/11 00:13:45;;;;;;;31.80;18.10;;;;;;;8.17;52.30;96268.28;5029793;28;20064;-63
2022/01/11 00:16:14;;;;;;;30.45;17.77;;;;;;;8.93;51.36;96288.88;5030284;28;20026;-61
2022/01/11 00:18:40;;;;;;;29.05;17.48;;;;;;;7.02;54.72;96282.25;5030218;28;20025;-63
2022/01/11 00:21:06;;;;;;;29.05;18.08;;;;;;;7.83;53.52;96228.97;5029953;28;20029;-62
2022/01/11 00:25:57;;;;;;;30.67;18.17;;;;;;;8.63;51.57;96253.31;5030086;28;20395;-62
2022/01/11 00:28:25;;;;;;;28.92;17.13;;;;;;;7.78;53.39;96311.84;5029589;28;20028;-63
2022/01/11 00:30:51;;;;;;;31.27;18.25;;;;;;;7.68;53.77;96252.75;5028182;28;20021;-63
2022/01/11 00:33:24;;;;;;;30.67;18.00;;;;;;;6.90;55.76;96273.66;5030155;28;20018;-63
2022/01/11 00:36:00;;;;;;;29.27;17.55;;;;;;;7.88;54.50;96307.66;5029484;28;20030;-63
2022/01/11 00:38:28;;;;;;;31.13;18.45;;;;;;;7.57;54.09;96304.81;5028830;28;20049;-62
2022/01/11 00:40:56;;;;;;;30.42;18.10;;;;;;;7.54;54.45;96315.94;5028327;28;20029;-63
2022/01/11 00:43:24;;;;;;;32.72;18.08;;;;;;;6.82;55.74;96288.16;5029624;28;20021;-63
2022/01/11 00:45:51;;;;;;;30.58;18.52;;;;;;;8.14;54.49;96319.97;5030965;28;20033;-62
2022/01/11 00:48:17;;;;;;;36.85;19.85;;;;;;;8.15;53.97;96332.16;5028512;28;20355;-63
2022/01/11 00:50:43;;;;;;;30.30;19.05;;;;;;;8.57;53.05;96328.63;5029593;28;20152;-63
2022/01/11 00:53:10;;;;;;;28.98;17.73;;;;;;;8.51;52.57;96289.88;5029642;28;20036;-63
2022/01/11 00:55:36;;;;;;;35.22;18.85;;;;;;;8.02;52.38;96283.06;5029523;28;20025;-63
2022/01/11 00:58:02;;;;;;;34.80;18.38;;;;;;;7.58;54.23;96311.75;5029334;28;20491;-63
2022/01/11 01:00:29;;;;;;;30.90;19.83;;;;;;;7.63;53.72;96313.63;5030535;28;20030;-61
2022/01/11 01:02:55;;;;;;;30.35;17.83;;;;;;;6.82;55.63;96311.97;5029620;28;20025;-63
2022/01/11 01:05:21;;;;;;;27.95;18.67;;;;;;;7.76;54.63;96329.84;5029315;28;20387;-62
2022/01/11 01:07:47;;;;;;;27.98;18.10;;;;;;;7.99;53.57;96333.16;5029673;28;20605;-62
2022/01/11 01:12:58;;;;;;;34.95;19.10;;;;;;;7.88;52.91;96289.09;5029370;28;20060;-62
2022/01/11 01:15:25;;;;;;;31.63;19.20;;;;;;;8.71;51.94;96344.84;5029205;28;20112;-62
2022/01/11 01:17:52;;;;;;;28.60;17.90;;;;;;;8.93;51.57;96350.69;5028017;28;20022;-62
2022/01/11 01:20:18;;;;;;;29.88;19.80;;;;;;;8.55;51.25;96305.03;5027750;28;20021;-62
2022/01/11 01:22:46;;;;;;;31.67;18.85;;;;;;;8.40;52.13;96350.06;5029532;28;20539;-62
2022/01/11 01:25:12;;;;;;;31.95;18.63;;;;;;;8.73;51.43;96348.81;5028926;28;20471;-62
2022/01/11 01:27:38;;;;;;;28.73;18.60;;;;;;;8.87;51.32;96348.31;5027673;28;20044;-62
2022/01/11 01:30:05;;;;;;;31.15;19.85;;;;;;;8.65;51.05;96333.41;5028749;28;20044;-62
2022/01/11 01:32:31;;;;;;;30.95;18.52;;;;;;;8.76;51.03;96335.03;5030662;28;20460;-63
2022/01/11 01:35:01;;;;;;;25.08;18.25;;;;;;;8.76;50.66;96336.88;5028867;28;20036;-63
2022/01/11 01:37:27;;;;;;;30.05;18.95;;;;;;;8.56;50.60;96313.78;5028096;28;20040;-62
2022/01/11 01:39:52;;;;;;;32.20;18.63;;;;;;;8.47;50.92;96307.38;5027441;28;20025;-63
2022/01/11 01:42:23;;;;;;;27.33;17.20;;;;;;;8.00;52.55;96343.47;5029441;28;20110;-63
2022/01/11 01:44:49;;;;;;;30.02;17.23;;;;;;;8.64;51.71;96358.31;5027185;28;20025;-63
2022/01/11 01:47:14;;;;;;;26.45;17.33;;;;;;;8.55;50.95;96312.19;5031860;28;20030;-62
2022/01/11 01:49:40;;;;;;;27.35;17.63;;;;;;;8.68;51.06;96362.06;5032662;28;20044;-63
2022/01/11 01:52:05;;;;;;;29.65;17.88;;;;;;;8.51;51.03;96337.63;5033171;28;20030;-62
2022/01/11 01:54:31;;;;;;;20.45;15.30;;;;;;;8.15;52.02;96326.06;5032792;28;20022;-62
2022/01/11 01:56:56;;;;;;;28.58;17.90;;;;;;;8.02;52.44;96322.81;5031889;28;20095;-63
2022/01/11 01:59:22;;;;;;;26.20;16.88;;;;;;;8.20;51.65;96281.81;5032189;28;20018;-62
2022/01/11 02:01:48;;;;;;;26.92;17.20;;;;;;;8.64;51.04;96313.22;5034071;28;20022;-62
2022/01/11 02:04:17;;;;;;;25.27;17.63;;;;;;;9.06;50.61;96352.06;5032677;28;20109;-62
2022/01/11 02:06:43;;;;;;;23.45;17.20;;;;;;;8.97;50.31;96337.72;5032919;28;20033;-62
2022/01/11 02:09:11;;;;;;;27.58;17.13;;;;;;;9.08;50.17;96340.09;5031206;28;20091;-62
2022/01/11 02:11:36;;;;;;;27.40;17.10;;;;;;;8.79;49.48;96294.69;5032777;28;20649;-62
2022/01/11 02:14:02;;;;;;;26.63;16.85;;;;;;;9.10;50.01;96361.06;5032189;28;20056;-62
2022/01/11 02:16:27;;;;;;;24.77;16.38;;;;;;;8.99;49.87;96324.97;5034061;28;20033;-62
2022/01/11 02:18:53;;;;;;;28.67;17.88;;;;;;;8.89;49.68;96327.59;5032266;28;20030;-62
2022/01/11 02:21:21;;;;;;;26.55;16.55;;;;;;;8.57;50.91;96353.28;5032648;28;20030;-62
2022/01/11 02:23:46;;;;;;;24.17;16.05;;;;;;;8.51;50.87;96364.13;5031509;28;20164;-62
2022/01/11 02:26:12;;;;;;;23.13;16.40;;;;;;;7.75;50.89;96246.16;5032262;28;20041;-62
2022/01/11 02:28:39;;;;;;;22.55;16.50;;;;;;;8.94;50.94;96362.13;5030798;28;20068;-61
2022/01/11 02:31:08;;;;;;;27.48;18.83;;;;;;;8.76;50.84;96368.72;5032080;28;20025;-62
2022/01/11 02:33:38;;;;;;;29.30;16.98;;;;;;;8.76;50.25;96348.28;5032254;28;20174;-62
2022/01/11 02:36:06;;;;;;;24.05;16.35;;;;;;;8.74;50.35;96345.09;5032275;28;20022;-62
2022/01/11 02:38:32;;;;;;;23.98;16.92;;;;;;;8.80;50.29;96378.56;5032485;28;20057;-62
2022/01/11 02:40:58;;;;;;;29.20;16.70;;;;;;;8.93;50.26;96371.94;5032013;28;20120;-62
2022/01/11 02:43:25;;;;;;;28.63;17.15;;;;;;;8.79;50.35;96358.38;5030844;28;20017;-62
2022/01/11 02:45:50;;;;;;;25.20;15.25;;;;;;;8.61;49.85;96305.03;5033073;28;20232;-62
2022/01/11 02:48:16;;;;;;;27.73;17.55;;;;;;;8.58;49.76;96314.28;5030745;28;20122;-62
2022/01/11 02:50:41;;;;;;;31.33;18.23;;;;;;;8.85;50.07;96337.94;5030572;28;20025;-62
2022/01/11 02:53:08;;;;;;;26.05;16.88;;;;;;;8.99;49.47;96328.41;5032186;28;20025;-62
2022/01/11 02:55:37;;;;;;;28.08;17.70;;;;;;;9.30;49.58;96362.94;5031990;28;20053;-62
2022/01/11 02:58:03;;;;;;;29.08;18.10;;;;;;;8.94;49.97;96348.84;5031174;28;20040;-62
2022/01/11 03:00:28;;;;;;;28.05;17.63;;;;;;;8.84;49.99;96384.13;5029997;28;20029;-62
2022/01/11 03:02:53;;;;;;;28.08;17.80;;;;;;;8.88;49.65;96332.13;5032089;28;20037;-62
2022/01/11 03:05:19;;;;;;;28.13;17.00;;;;;;;9.07;49.22;96335.06;5030344;28;20124;-62
2022/01/11 03:07:44;;;;;;;28.77;17.90;;;;;;;9.05;49.29;96319.38;5030692;28;20053;-61
2022/01/11 03:10:23;;;;;;;24.00;17.00;;;;;;;8.98;48.74;96321.50;5031420;28;20049;-62
2022/01/11 03:12:49;;;;;;;26.88;17.33;;;;;;;9.13;49.37;96373.81;5030790;28;20022;-62
2022/01/11 03:15:15;;;;;;;23.80;15.68;;;;;;;9.13;49.01;96367.72;5032590;28;20104;-62
2022/01/11 03:17:41;;;;;;;24.20;16.35;;;;;;;9.20;48.97;96357.63;5031544;28;20029;-62
2022/01/11 03:20:09;;;;;;;27.92;16.25;;;;;;;8.97;49.08;96304.00;5031136;28;20365;-62
2022/01/11 03:22:34;;;;;;;23.23;15.75;;;;;;;9.35;48.79;96376.22;5030294;28;20017;-62
2022/01/11 03:25:01;;;;;;;18.02;14.63;;;;;;;9.13;48.87;96339.31;5031076;28;20017;-62
2022/01/11 03:27:27;;;;;;;25.63;15.73;;;;;;;9.50;48.43;96396.66;5031470;28;20029;-62
2022/01/11 03:29:52;;;;;;;21.05;15.52;;;;;;;9.41;48.97;96392.94;5030681;28;20105;-62
2022/01/11 03:32:19;;;;;;;21.75;15.25;;;;;;;8.75;49.01;96351.19;5030527;28;20102;-62
2022/01/11 03:34:46;;;;;;;20.42;14.48;;;;;;;8.84;49.17;96361.03;5030065;28;20112;-62
2022/01/11 03:37:16;;;;;;;19.13;14.75;;;;;;;8.92;49.25;96374.84;5031200;28;20029;-62
2022/01/11 03:39:41;;;;;;;19.35;14.85;;;;;;;8.67;49.29;96333.94;5030934;28;20032;-61
2022/01/11 03:42:07;;;;;;;20.30;14.35;;;;;;;9.06;49.42;96391.88;5029783;28;20033;-62
2022/01/11 03:44:32;;;;;;;20.20;15.15;;;;;;;8.91;48.92;96349.38;5029049;28;20052;-62
2022/01/11 03:46:59;;;;;;;24.20;15.20;;;;;;;9.37;48.85;96400.66;5032394;28;20033;-62
2022/01/11 03:49:25;;;;;;;25.65;15.00;;;;;;;9.38;48.90;96397.72;5030653;28;20022;-62
2022/01/11 03:51:50;;;;;;;23.15;15.95;;;;;;;8.99;48.49;96343.53;5029341;28;20025;-62
2022/01/11 03:54:23;;;;;;;27.52;15.38;;;;;;;9.47;48.18;96399.84;5029434;28;20017;-62
2022/01/11 03:56:49;;;;;;;16.83;13.27;;;;;;;8.44;49.75;96385.56;5030680;28;20037;-62
2022/01/11 03:59:15;;;;;;;21.70;13.63;;;;;;;8.80;49.36;96370.59;5030052;28;20033;-62
2022/01/11 04:01:40;;;;;;;18.23;13.60;;;;;;;8.77;49.41;96405.59;5032190;28;20045;-62
2022/01/11 04:04:07;;;;;;;19.13;13.85;;;;;;;8.91;49.27;96402.47;5029391;28;20024;-61
2022/01/11 04:06:32;;;;;;;24.63;15.45;;;;;;;8.86;49.03;96363.44;5029182;28;20164;-62
2022/01/11 04:08:57;;;;;;;22.00;13.95;;;;;;;9.08;49.34;96387.88;5029705;28;20125;-62
2022/01/11 04:11:23;;;;;;;19.58;13.65;;;;;;;9.35;48.81;96400.91;5030139;28;20033;-62
2022/01/11 04:13:49;;;;;;;20.42;15.02;;;;;;;9.31;48.32;96380.47;5030362;28;20026;-63
2022/01/11 04:16:15;;;;;;;25.38;15.30;;;;;;;9.44;48.44;96403.84;5031596;28;20028;-63
2022/01/11 04:18:40;;;;;;;27.02;16.42;;;;;;;9.09;48.03;96335.59;5030140;28;20036;-62
2022/01/11 04:21:06;;;;;;;22.25;14.98;;;;;;;8.82;48.43;96336.63;5030005;28;20040;-62
2022/01/11 04:23:32;;;;;;;20.88;15.27;;;;;;;9.38;48.69;96396.94;5030207;28;20036;-62
2022/01/11 04:25:59;;;;;;;21.52;15.18;;;;;;;9.18;48.05;96373.03;5030020;28;20029;-63
2022/01/11 04:28:27;;;;;;;22.83;14.80;;;;;;;9.21;48.74;96389.22;5029815;28;20112;-62
2022/01/11 04:30:53;;;;;;;28.05;15.93;;;;;;;9.19;48.60;96399.31;5030746;28;20024;-62
2022/01/11 04:33:19;;;;;;;24.35;16.45;;;;;;;9.38;48.59;96402.25;5030057;28;20027;-63
2022/01/11 04:35:48;;;;;;;23.90;15.15;;;;;;;9.31;47.94;96383.91;5029916;28;20021;-62
2022/01/11 04:38:20;;;;;;;19.02;14.75;;;;;;;9.35;48.37;96390.28;5030110;28;20049;-62
2022/01/11 04:40:45;;;;;;;21.53;14.67;;;;;;;9.54;48.40;96403.84;5029655;28;20029;-62
2022/01/11 04:43:11;;;;;;;18.95;14.50;;;;;;;9.50;47.74;96402.78;5029913;28;20279;-63
2022/01/11 04:45:37;;;;;;;24.25;14.55;;;;;;;9.47;47.98;96410.47;5030622;28;20036;-62
2022/01/11 04:48:02;;;;;;;23.75;15.98;;;;;;;9.15;47.97;96365.59;5029558;28;20021;-62
2022/01/11 04:50:29;;;;;;;21.08;14.98;;;;;;;9.35;47.69;96392.16;5029380;28;20100;-62
2022/01/11 04:52:55;;;;;;;19.60;14.10;;;;;;;9.57;47.57;96416.59;5029801;28;20550;-63
2022/01/11 04:55:20;;;;;;;18.23;13.75;;;;;;;9.65;47.31;96423.22;5029709;28;20033;-64
2022/01/11 04:57:46;;;;;;;20.52;15.32;;;;;;;9.59;47.37;96424.31;5029773;28;20403;-63
2022/01/11 05:00:14;;;;;;;29.27;15.80;;;;;;;9.64;47.70;96417.13;5030237;28;20037;-63
2022/01/11 05:02:39;;;;;;;20.95;15.57;;;;;;;9.33;47.34;96371.19;5031219;28;20075;-63
2022/01/11 05:05:05;;;;;;;21.35;15.05;;;;;;;9.69;47.54;96410.22;5029021;28;20021;-63
2022/01/11 05:07:31;;;;;;;18.92;14.30;;;;;;;9.43;47.38;96425.34;5028244;28;20598;-61
2022/01/11 05:09:56;;;;;;;19.45;15.18;;;;;;;9.49;47.86;96427.75;5029252;28;20021;-61
2022/01/11 05:12:21;;;;;;;20.60;14.82;;;;;;;9.50;47.53;96421.38;5029694;28;20483;-61
2022/01/11 05:14:47;;;;;;;21.65;15.52;;;;;;;9.21;47.51;96362.66;5030286;28;20045;-61
2022/01/11 05:17:13;;;;;;;21.80;14.45;;;;;;;9.49;47.33;96398.53;5031103;28;20029;-61
2022/01/11 05:19:38;;;;;;;25.85;15.85;;;;;;;9.74;47.30;96423.50;5028926;28;20028;-61
2022/01/11 05:22:04;;;;;;;23.67;15.63;;;;;;;9.79;47.12;96429.59;5029161;28;20048;-62
2022/01/11 05:24:29;;;;;;;23.77;15.48;;;;;;;9.57;46.97;96399.84;5029153;28;20043;-61
2022/01/11 05:26:54;;;;;;;18.88;14.60;;;;;;;9.77;47.02;96430.94;5029393;28;20160;-61
2022/01/11 05:29:20;;;;;;;23.23;15.60;;;;;;;9.83;47.05;96435.19;5028685;28;20032;-61
2022/01/11 05:31:46;;;;;;;22.80;16.17;;;;;;;10.00;46.26;96440.22;5029269;28;20115;-61
2022/01/11 05:34:11;;;;;;;24.38;15.65;;;;;;;9.78;46.22;96414.72;5027971;28;20029;-63
2022/01/11 05:36:37;;;;;;;23.02;16.98;;;;;;;9.52;47.18;96445.00;5028951;28;20021;-64
2022/01/11 05:39:03;;;;;;;24.77;16.80;;;;;;;9.70;47.74;96443.69;5029107;28;20580;-63
2022/01/11 05:41:31;;;;;;;19.98;14.57;;;;;;;9.63;47.04;96430.69;5029332;28;20025;-64
2022/01/11 05:43:57;;;;;;;24.25;16.27;;;;;;;9.77;46.68;96446.88;5029015;28;20021;-63
2022/01/11 05:46:22;;;;;;;22.67;14.52;;;;;;;9.46;46.91;96396.41;5030094;28;20035;-64
2022/01/11 05:48:48;;;;;;;22.83;15.68;;;;;;;9.71;46.68;96426.69;5029208;28;20029;-63
2022/01/11 05:51:14;;;;;;;20.30;14.65;;;;;;;9.93;46.74;96476.88;5028975;28;20032;-62
2022/01/11 05:53:41;;;;;;;23.48;15.68;;;;;;;9.67;47.01;96402.50;5029560;28;20028;-61
2022/01/11 05:56:07;;;;;;;19.50;15.00;;;;;;;9.96;46.64;96463.06;5028815;28;20029;-62
2022/01/11 05:58:32;;;;;;;23.75;15.60;;;;;;;9.95;46.55;96453.50;5029085;28;20095;-63
2022/01/11 06:00:57;;;;;;;20.48;16.33;;;;;;;9.54;47.14;96429.59;5029549;28;20021;-63
2022/01/11 06:03:23;;;;;;;24.10;16.98;;;;;;;9.40;47.08;96437.28;5028926;28;20468;-60
2022/01/11 06:05:48;;;;;;;18.30;15.13;;;;;;;9.35;47.14;96469.94;5028688;28;20057;-61
2022/01/11 06:08:16;;;;;;;19.58;15.27;;;;;;;9.35;47.47;96448.69;5029083;28;20025;-65
2022/01/11 06:10:43;;;;;;;21.92;14.98;;;;;;;9.41;47.12;96457.47;5027533;28;20544;-63
2022/01/11 06:13:10;;;;;;;20.65;14.82;;;;;;;9.25;47.51;96416.81;5029053;28;20033;-63
2022/01/11 06:15:35;;;;;;;24.83;17.00;;;;;;;9.11;47.12;96439.66;5028801;28;20025;-63
2022/01/11 06:18:01;;;;;;;25.02;17.00;;;;;;;9.63;46.83;96465.22;5029416;28;20079;-63
2022/01/11 06:20:26;;;;;;;21.75;15.40;;;;;;;9.76;46.99;96485.13;5028551;28;20083;-62
2022/01/11 06:22:53;;;;;;;24.38;16.58;;;;;;;9.10;46.66;96361.06;5028917;28;20032;-62
2022/01/11 06:25:19;;;;;;;23.98;16.35;;;;;;;9.29;46.60;96401.97;5028691;28;20025;-63
2022/01/11 06:27:45;;;;;;;24.35;16.17;;;;;;;9.92;46.47;96499.22;5028636;28;20124;-66
2022/01/11 06:30:11;;;;;;;27.25;17.00;;;;;;;9.77;46.96;96482.19;5027959;28;20104;-64
2022/01/11 06:32:38;;;;;;;33.13;19.77;;;;;;;9.04;46.62;96393.97;5029285;28;20043;-66
2022/01/11 06:35:05;;;;;;;30.30;18.92;;;;;;;9.16;47.25;96417.59;5032038;28;20026;-65
2022/01/11 06:37:30;;;;;;;24.52;18.05;;;;;;;8.18;46.60;96254.78;5032134;28;20104;-61
2022/01/11 06:39:56;;;;;;;28.27;18.75;;;;;;;9.92;46.93;96518.63;5032128;28;20630;-61
2022/01/11 06:42:21;;;;;;;31.73;19.35;;;;;;;7.26;46.70;96113.28;5032301;28;20022;-63
2022/01/11 06:44:47;;;;;;;32.90;19.50;;;;;;;9.21;46.70;96404.34;5031454;28;20040;-64
2022/01/11 06:47:12;;;;;;;31.42;18.27;;;;;;;9.38;47.00;96403.03;5030346;28;20017;-64
2022/01/11 06:49:39;;;;;;;24.92;17.17;;;;;;;10.05;45.77;96480.09;5031617;28;20029;-66
2022/01/11 06:52:05;;;;;;;26.35;17.27;;;;;;;10.06;46.37;96473.69;5031937;28;20032;-63
2022/01/11 06:54:30;;;;;;;25.65;17.60;;;;;;;9.53;46.36;96388.97;5031498;28;20021;-61
2022/01/11 06:56:56;;;;;;;31.15;18.65;;;;;;;9.68;45.76;96428.03;5030193;28;20030;-61
2022/01/11 06:59:22;;;;;;;31.90;21.10;;;;;;;10.41;45.91;96524.22;5029104;28;20417;-62
2022/01/11 07:01:49;;;;;;;25.52;18.20;;;;;;;9.62;46.21;96384.72;5031273;28;20037;-61
2022/01/11 07:04:14;;;;;;;29.77;18.38;;;;;;;9.70;45.50;96390.56;5031652;28;20026;-62
2022/01/11 07:06:39;;;;;;;34.05;19.25;;;;;;;10.12;45.67;96464.66;5031499;28;20080;-61
2022/01/11 07:09:05;;;;;;;26.23;18.42;;;;;;;10.47;45.68;96513.56;5031339;28;20387;-62
2022/01/11 07:11:30;;;;;;;27.90;18.25;;;;;;;10.52;45.08;96524.19;5031751;28;20068;-62
2022/01/11 07:13:56;;;;;;;25.08;17.90;;;;;;;10.27;45.46;96490.47;5031566;28;20678;-61
2022/01/11 07:16:21;;;;;;;30.38;18.30;;;;;;;10.58;45.48;96536.41;5032186;28;20483;-61
2022/01/11 07:18:47;;;;;;;26.13;18.83;;;;;;;10.06;46.01;96447.13;5031383;28;20041;-62
2022/01/11 07:21:13;;;;;;;26.92;18.08;;;;;;;10.63;45.23;96536.41;5031211;28;20424;-60
2022/01/11 07:23:38;;;;;;;30.60;19.48;;;;;;;10.55;45.29;96531.66;5031508;28;20022;-60
2022/01/11 07:26:07;;;;;;;24.45;17.27;;;;;;;10.65;45.05;96555.56;5030855;28;20506;-61
2022/01/11 07:28:32;;;;;;;23.15;17.45;;;;;;;10.61;44.91;96557.97;5031369;28;20554;-61
2022/01/11 07:30:58;;;;;;;25.00;18.33;;;;;;;10.18;44.59;96484.06;5032037;28;20108;-61
2022/01/11 07:33:23;;;;;;;31.52;19.13;;;;;;;9.62;45.08;96514.91;5031148;28;20021;-62
2022/01/11 07:35:48;;;;;;;26.90;19.58;;;;;;;9.88;45.60;96526.34;5030956;28;20022;-60
2022/01/11 07:38:14;;;;;;;31.42;19.25;;;;;;;9.60;45.69;96494.94;5030120;28;20689;-61
2022/01/11 07:40:39;;;;;;;27.80;18.77;;;;;;;9.96;46.08;96556.91;5031024;28;20033;-61
2022/01/11 07:43:05;;;;;;;31.35;19.10;;;;;;;9.77;46.01;96563.78;5029984;28;20025;-60
2022/01/11 07:45:30;;;;;;;26.30;18.63;;;;;;;9.76;46.37;96554.22;5029122;28;20022;-61
2022/01/11 07:47:55;;;;;;;28.88;20.23;;;;;;;9.51;46.22;96552.31;5032133;28;20025;-61
2022/01/11 07:50:21;;;;;;;31.13;19.48;;;;;;;9.42;46.11;96525.47;5030616;28;20030;-61
2022/01/11 07:52:48;;;;;;;27.83;19.70;;;;;;;9.50;46.01;96516.19;5031086;28;20033;-61
2022/01/11 07:55:14;;;;;;;24.95;18.75;;;;;;;9.66;46.16;96520.47;5030925;28;20025;-61
2022/01/11 07:57:39;;;;;;;26.98;18.75;;;;;;;9.92;46.09;96570.97;5030994;28;20537;-61
2022/01/11 08:00:07;;;;;;;24.08;18.40;;;;;;;9.90;46.44;96566.72;5030085;28;20030;-61
2022/01/11 08:02:32;;;;;;;28.50;19.13;;;;;;;10.06;45.91;96566.75;5031116;28;20112;-61
2022/01/11 08:04:58;;;;;;;24.45;17.73;;;;;;;9.64;45.90;96571.22;5029344;28;20108;-61
2022/01/11 08:07:23;;;;;;;24.60;17.77;;;;;;;9.94;45.59;96576.84;5030792;28;20084;-61
2022/01/11 08:09:49;;;;;;;24.20;17.40;;;;;;;9.77;45.83;96527.38;5030415;28;20032;-61
2022/01/11 08:12:14;;;;;;;24.88;17.85;;;;;;;10.16;45.50;96572.06;5030667;28;20487;-61
2022/01/11 08:14:40;;;;;;;31.45;20.25;;;;;;;10.16;45.15;96550.78;5029952;28;20124;-59
2022/01/11 08:17:05;;;;;;;24.70;17.98;;;;;;;10.43;44.66;96560.38;5031971;28;20112;-60
2022/01/11 08:19:31;;;;;;;23.90;18.20;;;;;;;10.19;45.00;96517.56;5030137;28;20064;-60
2022/01/11 08:21:56;;;;;;;26.05;18.20;;;;;;;10.64;44.63;96572.59;5030562;28;20541;-60
2022/01/11 08:24:23;;;;;;;21.55;17.17;;;;;;;10.68;44.41;96571.78;5030229;28;20100;-60
2022/01/11 08:26:53;;;;;;;28.00;18.63;;;;;;;10.40;44.12;96519.97;5029965;28;20030;-60
2022/01/11 08:29:19;;;;;;;22.70;17.70;;;;;;;10.79;43.63;96553.94;5028604;28;20116;-62
2022/01/11 08:31:46;;;;;;;25.85;17.25;;;;;;;10.59;43.86;96553.97;5031103;28;20467;-62
2022/01/11 08:34:14;;;;;;;24.85;18.70;;;;;;;9.43;45.68;96524.41;5029965;28;20029;-61
2022/01/11 08:36:39;;;;;;;27.00;19.00;;;;;;;9.05;47.30;96571.53;5029761;28;20022;-61
2022/01/11 08:39:05;;;;;;;22.17;16.67;;;;;;;7.89;49.88;96571.53;5029951;28;20029;-61
2022/01/11 08:41:30;;;;;;;23.60;17.73;;;;;;;8.65;48.60;96494.38;5030221;28;20025;-60
2022/01/11 08:43:55;;;;;;;19.80;16.25;;;;;;;9.48;46.80;96531.59;5030053;28;20075;-60
2022/01/11 08:46:21;;;;;;;18.30;15.93;;;;;;;8.52;47.81;96498.31;5030600;28;20096;-61
2022/01/11 08:48:46;;;;;;;23.40;17.73;;;;;;;9.66;46.66;96562.19;5029722;28;20380;-61
2022/01/11 08:51:11;;;;;;;22.27;16.95;;;;;;;9.72;45.59;96538.00;5029176;28;20017;-61
2022/01/11 08:53:37;;;;;;;21.40;15.00;;;;;;;7.80;49.11;96568.53;5029979;28;20044;-61
2022/01/11 08:56:03;;;;;;;20.63;15.65;;;;;;;6.62;53.48;96542.56;5029279;28;20101;-61
2022/01/11 08:58:29;;;;;;;20.13;16.25;;;;;;;6.93;52.34;96532.38;5030165;28;20105;-61
2022/01/11 09:00:54;;;;;;;22.52;16.88;;;;;;;7.88;51.55;96604.34;5030621;28;20096;-62
2022/01/11 09:03:23;;;;;;;22.92;17.02;;;;;;;7.58;51.31;96528.88;5031540;28;20105;-61
2022/01/11 09:05:48;;;;;;;19.92;15.85;;;;;;;8.56;49.58;96573.66;5029175;28;20017;-60
2022/01/11 09:08:14;;;;;;;17.65;15.02;;;;;;;8.24;48.73;96547.16;5028585;28;20120;-60
2022/01/11 09:10:39;;;;;;;19.38;15.30;;;;;;;7.51;51.17;96544.94;5027994;28;20087;-61
2022/01/11 09:13:05;;;;;;;20.88;16.15;;;;;;;8.07;50.18;96597.63;5029760;28;20483;-61
2022/01/11 09:15:32;;;;;;;17.85;14.20;;;;;;;7.47;50.89;96585.38;5027323;28;20036;-63
2022/01/11 09:17:58;;;;;;;20.13;14.20;;;;;;;8.38;48.86;96605.88;5030744;28;20099;-62
2022/01/11 09:20:23;;;;;;;16.80;14.18;;;;;;;8.88;47.17;96570.13;5029174;28;20098;-61
2022/01/11 09:22:49;;;;;;;16.08;14.38;;;;;;;9.27;46.11;96549.34;5029506;28;20064;-61
2022/01/11 09:25:15;;;;;;;20.02;15.05;;;;;;;9.42;45.93;96612.31;5029211;28;20471;-62
2022/01/11 09:27:41;;;;;;;19.23;14.85;;;;;;;8.84;46.72;96605.13;5029386;28;20026;-62
2022/01/11 09:30:10;;;;;;;16.70;14.60;;;;;;;9.47;46.15;96633.56;5027608;28;20034;-63
2022/01/11 09:32:38;;;;;;;22.92;17.30;;;;;;;9.59;45.57;96591.66;5030518;28;20025;-62
2022/01/11 09:35:06;;;;;;;20.33;16.17;;;;;;;8.31;44.83;96312.59;5027409;28;20044;-62
2022/01/11 09:37:31;;;;;;;23.65;17.38;;;;;;;10.52;44.51;96614.66;5028940;28;20114;-62
2022/01/11 09:39:57;;;;;;;30.50;18.80;;;;;;;10.06;44.27;96615.41;5029064;28;20487;-62
2022/01/11 09:42:23;;;;;;;25.55;16.85;;;;;;;8.85;47.28;96643.06;5029265;28;20033;-62
2022/01/11 09:44:48;;;;;;;29.10;19.38;;;;;;;6.64;52.53;96542.31;5028774;28;20029;-62
2022/01/11 09:47:14;;;;;;;31.70;19.95;;;;;;;7.32;50.61;96529.63;5028516;28;20036;-61
2022/01/11 09:49:41;;;;;;;30.75;20.30;;;;;;;8.52;48.34;96520.34;5028993;28;20017;-62
2022/01/11 09:52:09;;;;;;;23.17;17.42;;;;;;;8.92;46.89;96579.97;5009512;28;20033;-62
2022/01/11 09:54:40;;;;;;;27.60;19.55;;;;;;;8.99;47.35;96591.16;5009365;28;20496;-62
2022/01/11 09:57:05;;;;;;;27.50;19.33;;;;;;;8.40;47.29;96503.84;5007748;28;20022;-63
2022/01/11 09:59:31;;;;;;;26.55;18.80;;;;;;;9.54;45.94;96579.16;5008873;28;20032;-62
2022/01/11 10:01:57;;;;;;;28.65;18.80;;;;;;;9.55;45.59;96529.47;5038777;22;20027;-68
2022/01/11 10:04:35;;;;;;;25.17;17.55;;;;;;;9.29;46.02;96579.06;5019630;28;20032;-68
2022/01/11 10:07:04;;;;;;;26.58;17.90;;;;;;;9.54;46.00;96570.38;5010994;28;20698;-68
2022/01/11 10:09:31;;;;;;;19.02;15.90;;;;;;;9.94;45.91;96596.25;5032176;28;20121;-68
2022/01/11 10:12:00;;;;;;;20.42;17.85;;;;;;;9.84;45.09;96554.50;5033008;28;20537;-70
2022/01/11 10:14:33;;;;;;;22.67;17.35;;;;;;;10.60;43.34;96553.72;5032760;28;20036;-70
2022/01/11 10:17:19;;;;;;;24.52;17.67;;;;;;;10.29;44.59;96581.41;5031979;28;20025;-70
2022/01/11 10:20:06;;;;;;;19.58;16.75;;;;;;;10.39;44.35;96621.31;5022462;28;20028;-70
2022/01/11 10:22:32;;;;;;;22.98;16.30;;;;;;;10.70;43.20;96581.34;5022726;28;20475;-70
2022/01/11 10:25:00;;;;;;;16.23;14.30;;;;;;;11.33;43.20;96622.47;5032278;28;20021;-70
2022/01/11 10:27:29;;;;;;;19.98;15.07;;;;;;;11.12;42.13;96551.72;5032545;28;20036;-71
2022/01/11 10:30:13;;;;;;;17.13;14.70;;;;;;;10.15;43.50;96543.88;5032137;28;20072;-68
2022/01/11 10:32:46;;;;;;;17.88;16.02;;;;;;;10.60;43.17;96603.47;5030237;28;20026;-69
2022/01/11 10:35:19;;;;;;;21.23;16.38;;;;;;;10.14;44.77;96606.13;5022327;28;20507;-71
2022/01/11 10:37:51;;;;;;;15.30;13.77;;;;;;;9.90;43.74;96555.31;5032893;28;20029;-69
2022/01/11 10:40:24;;;;;;;15.00;12.95;;;;;;;9.77;43.00;96556.59;5032234;28;20075;-69
2022/01/11 10:43:01;;;;;;;17.60;13.60;;;;;;;10.33;43.28;96619.69;5032695;28;20108;-69
2022/01/11 10:45:29;;;;;;;17.77;12.85;;;;;;;10.02;43.10;96581.63;5031568;28;20505;-69
2022/01/11 10:47:57;;;;;;;14.43;11.75;;;;;;;9.72;43.57;96598.31;5032300;28;20475;-69
2022/01/11 10:50:27;;;;;;;17.60;13.48;;;;;;;9.70;44.16;96616.38;5028781;28;20053;-70
2022/01/11 10:52:53;;;;;;;14.02;12.05;;;;;;;9.96;43.47;96619.91;5032241;28;20537;-67
2022/01/11 10:55:22;;;;;;;13.52;11.85;;;;;;;9.68;43.00;96547.59;5031962;28;20033;-67
2022/01/11 10:58:02;;;;;;;14.30;12.35;;;;;;;9.75;43.29;96600.47;5032269;28;20112;-68
2022/01/11 11:00:27;;;;;;;16.77;12.63;;;;;;;9.33;43.68;96623.44;5032166;28;20025;-70
2022/01/11 11:03:01;;;;;;;14.20;12.55;;;;;;;9.85;42.94;96622.53;5031455;28;20387;-68
2022/01/11 11:05:35;;;;;;;14.35;11.60;;;;;;;9.57;42.11;96540.63;5032449;28;20124;-71
2022/01/11 11:08:04;;;;;;;15.85;12.43;;;;;;;9.82;42.30;96588.50;5031824;28;20068;-70
2022/01/11 11:10:49;;;;;;;15.07;11.38;;;;;;;9.54;41.90;96565.88;5031837;28;20021;-73
2022/01/11 11:13:21;;;;;;;14.00;11.02;;;;;;;9.03;42.57;96564.91;5014035;28;20025;-70
2022/01/11 11:15:49;;;;;;;;;;;;;;;8.75;44.27;96643.00;5031443;28;20168;-71
2022/01/11 11:18:30;;;;;;;13.45;9.15;;;;;;;9.89;42.23;96636.13;5021885;28;20382;-71
2022/01/11 11:21:10;;;;;;;13.75;9.68;;;;;;;9.63;41.92;96560.84;5021842;28;20483;-71
2022/01/11 11:23:37;;;;;;;11.15;8.80;;;;;;;9.44;41.97;96596.91;5031541;28;20028;-71
2022/01/11 11:26:03;;;;;;;12.15;9.77;;;;;;;9.55;41.33;96579.94;5031317;28;20088;-71
2022/01/11 11:28:29;;;;;;;12.48;9.38;;;;;;;9.86;41.41;96642.72;5031625;28;20083;-70
2022/01/11 11:30:56;;;;;;;11.65;9.43;;;;;;;9.82;41.06;96619.59;5027802;28;20025;-70